Barkley Observed Data For Previous 48 Hours

Caption
Day and Hour Reservoir Elevation (behind dam)* Tailwater Elevation (below dam)* Average Hourly Discharge*
5/24/2019 1 AM CDT 358.95 317.95 11,100
5/24/2019 2 AM CDT 358.95 317.65 11,400
5/24/2019 3 AM CDT 358.95 317.65 11,000
5/24/2019 4 AM CDT 358.95 317.65 11,400
5/24/2019 5 AM CDT 358.95 317.55 11,400
5/24/2019 6 AM CDT 358.95 317.55 11,400
5/24/2019 7 AM CDT 358.95 317.45 11,700
5/24/2019 8 AM CDT 358.95 317.15 11,200
5/24/2019 9 AM CDT 358.95 317.15 11,600
5/24/2019 10 AM CDT 358.95 317.15 11,200
5/24/2019 11 AM CDT 358.95 317.15 11,600
5/24/2019 12 PM CDT 358.80 317.80 23,000
5/24/2019 1 PM CDT 358.80 317.90 23,000
5/24/2019 2 PM CDT 358.80 317.90 23,200
5/24/2019 3 PM CDT 358.80 317.90 23,000
5/24/2019 4 PM CDT 358.80 317.90 23,000
5/24/2019 5 PM CDT 358.80 318.00 22,800
5/24/2019 6 PM CDT 358.80 318.00 23,600
5/24/2019 7 PM CDT 358.95 317.55 22,800
5/24/2019 8 PM CDT 359.10 316.70 11,000
5/24/2019 9 PM CDT 359.10 316.60 11,000
5/24/2019 10 PM CDT 359.10 316.60 11,000
5/24/2019 11 PM CDT 359.10 316.60 11,000
5/25/2019 12 AM CDT 359.10 316.60 11,000
5/25/2019 1 AM CDT 359.05 316.55 11,000
5/25/2019 2 AM CDT 359.05 316.45 11,000
5/25/2019 3 AM CDT 359.05 316.35 10,900
5/25/2019 4 AM CDT 359.05 316.25 10,900
5/25/2019 5 AM CDT 359.05 316.15 10,900
5/25/2019 6 AM CDT 359.05 316.05 10,800
5/25/2019 7 AM CDT 359.05 315.95 10,800
5/25/2019 8 AM CDT 359.05 315.95 10,800
5/25/2019 9 AM CDT 359.05 315.85 10,800
5/25/2019 10 AM CDT 359.05 315.75 10,800
5/25/2019 11 AM CDT 358.95 315.55 10,700
5/25/2019 12 PM CDT 358.95 315.55 10,700
5/25/2019 1 PM CDT 358.95 315.55 10,700
5/25/2019 2 PM CDT 359.00 315.60 10,700
5/25/2019 3 PM CDT 358.95 316.55 22,800
5/25/2019 4 PM CDT 358.95 317.85 31,800
5/25/2019 5 PM CDT 358.95 317.55 30,900
5/25/2019 6 PM CDT 358.95 317.55 31,600
5/25/2019 7 PM CDT 358.95 316.85 22,200
5/25/2019 8 PM CDT 358.95 316.65 22,200
5/25/2019 9 PM CDT 359.00 315.90 10,800
5/25/2019 10 PM CDT 359.00 315.70 10,800
5/25/2019 11 PM CDT 359.05 315.55 10,700
5/26/2019 12 AM CDT 359.05 315.45 10,700
5/26/2019 1 AM CDT 359.05 315.35 10,600
5/26/2019 2 AM CDT 359.05 315.35 10,600
5/26/2019 3 AM CDT 359.05 315.25 10,600
5/26/2019 4 AM CDT 359.05 315.25 10,600
5/26/2019 5 AM CDT 359.05 315.15 10,600
5/26/2019 6 AM CDT 359.05 315.05 10,600
5/26/2019 7 AM CDT 359.05 315.05 10,600
5/26/2019 8 AM CDT 359.00 315.00 10,600
5/26/2019 9 AM CDT 358.95 314.95 10,600
5/26/2019 10 AM CDT 358.95 314.95 10,600
5/26/2019 11 AM CDT 358.95 314.85 10,500
5/26/2019 12 PM CDT 358.95 314.85 10,500
5/26/2019 1 PM CDT 358.95 314.85 10,500
5/26/2019 2 PM CDT 359.00 314.90 10,500
5/26/2019 3 PM CDT 359.00 315.70 21,600
5/26/2019 4 PM CDT 359.00 316.60 30,000

Elevations are in feet above sea level. Discharges are in cubic feet per second and are reported at the end of the hour.